Data for 05/01/2008

Time Sea-Level Adjusted Pressure Absolute Pressure Temperature Relative Humidity Dew Point   
(mb) (inHg) (mb) (inHg) (C) (F) (%) (C) (F)
00:05 1012 29.88 842 24.86 1.8 35.2 70 -3 26.5
00:10 1013 29.91 842 24.86 1.7 35.1 70 -3.2 26.2
00:15 1013 29.91 842 24.86 1.8 35.2 69 -3.2 26.2
00:20 1013 29.91 842 24.86 1.7 35.1 68 -3.5 25.7
00:25 1013 29.91 842 24.86 1.8 35.2 65 -4 24.8
00:30 1013 29.91 842 24.86 1.9 35.4 64 -4.2 24.4
00:35 1013 29.91 842 24.86 1.9 35.4 64 -4.2 24.4
00:40 1013 29.91 842 24.86 1.8 35.3 64 -4.3 24.3
00:45 1013 29.91 842 24.86 1.8 35.2 64 -4.2 24.4
00:50 1013 29.91 842 24.86 1.8 35.2 65 -4.1 24.6
00:55 1013 29.91 842 24.86 1.6 34.9 67 -3.9 24.9
01:00 1013 29.91 842 24.86 1.4 34.6 65 -4.4 24.1
01:05 1013 29.91 842 24.86 1.4 34.6 63 -4.8 23.4
01:10 1013 29.91 842 24.86 1.4 34.5 63 -4.9 23.2
01:15 1013 29.91 842 24.86 1.4 34.5 61 -5.4 22.3
01:20 1013 29.91 842 24.86 1.5 34.6 60 -5.5 22.2
01:25 1013 29.91 842 24.86 1.5 34.7 59 -5.7 21.7
01:30 1013 29.91 842 24.86 1.5 34.7 56 -6.3 20.7
01:35 1013 29.91 842 24.86 1.5 34.7 55 -6.7 20
01:40 1013 29.91 842 24.86 1.5 34.7 54 -6.8 19.8
01:45 1013 29.91 842 24.86 1.5 34.6 56 -6.3 20.6
01:50 1013 29.91 842 24.86 1.4 34.4 57 -6.2 20.9
01:55 1013 29.91 843 24.89 1.2 34.2 59 -6 21.2
02:00 1013 29.91 843 24.89 1.1 34 60 -5.8 21.5
02:05 1014 29.94 843 24.89 1.1 34 60 -5.8 21.6
02:10 1013 29.91 843 24.89 1.1 34 61 -5.6 22
02:15 1013 29.91 843 24.89 1 33.9 62 -5.5 22
02:20 1013 29.91 843 24.89 0.9 33.6 62 -5.6 21.8
02:25 1013 29.91 843 24.89 0.8 33.5 63 -5.5 22.1
02:30 1013 29.91 843 24.89 0.7 33.3 64 -5.3 22.4
02:35 1013 29.91 843 24.89 0.7 33.2 65 -5.3 22.5
02:40 1013 29.91 843 24.89 0.6 33.1 64 -5.5 22.1
02:45 1014 29.94 843 24.89 0.5 32.9 64 -5.6 22
02:50 1014 29.94 843 24.89 0.4 32.7 63 -5.8 21.6
02:55 1014 29.94 843 24.89 0.4 32.7 63 -5.9 21.4
03:00 1014 29.94 843 24.89 0.3 32.6 62 -6.2 20.9
03:05 1014 29.94 843 24.89 0.4 32.6 63 -5.9 21.4
03:10 1014 29.94 843 24.89 0.2 32.4 66 -5.4 22.3
03:15 1014 29.94 843 24.89 0 32.1 67 -5.3 22.4
03:20 1014 29.94 843 24.89 -0 31.9 67 -5.4 22.4
03:25 1014 29.94 843 24.89 -0 31.9 67 -5.4 22.3
03:30 1014 29.94 843 24.89 -0 32 66 -5.6 21.9
03:35 1014 29.94 843 24.89 0.1 32.1 66 -5.6 22
03:40 1014 29.94 843 24.89 0 32.1 66 -5.5 22.1
03:45 1014 29.94 843 24.89 -0 32 66 -5.6 21.9
03:50 1014 29.94 843 24.89 -0.1 31.9 65 -5.9 21.4
03:55 1014 29.94 843 24.89 -0.2 31.7 65 -5.9 21.4
04:00 1014 29.94 843 24.89 -0.2 31.6 65 -6 21.3
04:05 1014 29.94 843 24.89 -0.3 31.5 63 -6.4 20.4
04:10 1014 29.94 844 24.92 -0.3 31.4 62 -6.7 19.9
04:15 1014 29.94 844 24.92 -0.3 31.5 62 -6.8 19.8
04:20 1015 29.97 844 24.92 -0.3 31.5 62 -6.7 19.9
04:25 1015 29.97 844 24.92 -0.3 31.4 62 -6.7 19.9
04:30 1015 29.97 844 24.92 -0.4 31.2 62 -6.9 19.6
04:35 1015 29.97 844 24.92 -0.5 31 62 -7 19.5
04:40 1015 29.97 844 24.92 -0.6 30.9 63 -6.8 19.8
04:45 1015 29.97 844 24.92 -0.9 30.4 65 -6.7 20
04:50 1015 29.97 844 24.92 -1.1 29.9 66 -6.7 20
04:55 1015 29.97 844 24.92 -1.3 29.7 67 -6.6 20.1
05:00 1015 29.97 844 24.92 -1.4 29.5 68 -6.6 20.2
05:05 1015 29.97 844 24.92 -1.5 29.4 68 -6.5 20.2
05:10 1015 29.97 844 24.92 -1.5 29.3 69 -6.5 20.3
05:15 1015 29.97 844 24.92 -1.5 29.3 69 -6.5 20.3
05:20 1015 29.97 844 24.92 -1.6 29.2 70 -6.4 20.4
05:25 1015 29.97 845 24.95 -1.6 29.2 70 -6.4 20.5
05:30 1015 29.97 845 24.95 -1.6 29.1 70 -6.3 20.6
05:35 1015 29.97 845 24.95 -1.6 29.1 71 -6.3 20.7
05:40 1015 29.97 845 24.95 -1.7 29 71 -6.3 20.7
05:45 1015 29.97 845 24.95 -1.7 29 71 -6.3 20.6
05:50 1015 29.97 845 24.95 -1.7 29 70 -6.4 20.5
05:55 1015 29.97 845 24.95 -1.6 29.1 69 -6.5 20.3
06:00 1016 30 845 24.95 -1.5 29.2 69 -6.5 20.3
06:05 1016 30 845 24.95 -1.6 29.2 69 -6.5 20.3
06:10 1016 30 845 24.95 -1.7 29 69 -6.5 20.2
06:15 1016 30 845 24.95 -1.8 28.8 70 -6.5 20.2
06:20 1016 30 845 24.95 -1.9 28.6 70 -6.6 20.2
06:25 1016 30 845 24.95 -1.9 28.6 70 -6.6 20.1
06:30 1016 30 845 24.95 -1.9 28.6 70 -6.6 20.1
06:35 1016 30 845 24.95 -2 28.5 70 -6.7 20
06:40 1016 30 845 24.95 -2 28.5 70 -6.7 20
06:45 1016 30 845 24.95 -2 28.4 70 -6.7 19.9
06:50 1016 30 845 24.95 -2 28.4 70 -6.7 19.9
06:55 1016 30 845 24.95 -1.9 28.5 70 -6.6 20
07:00 1016 30 845 24.95 -1.9 28.5 70 -6.7 20
07:05 1016 30 845 24.95 -1.8 28.7 70 -6.7 20
07:10 1016 30 845 24.95 -1.6 29.2 69 -6.6 20.1
07:15 1016 30 845 24.95 -1.4 29.4 69 -6.5 20.3
07:20 1016 30 845 24.95 -1.2 29.9 68 -6.4 20.4
07:25 1016 30 846 24.98 -1.1 30.1 67 -6.4 20.5
07:30 1016 30 846 24.98 -0.9 30.3 67 -6.4 20.5
07:35 1017 30.03 846 24.98 -0.9 30.4 67 -6.3 20.7
07:40 1017 30.03 846 24.98 -0.5 31.1 65 -6.3 20.6
07:45 1017 30.03 846 24.98 -0.5 31 65 -6.4 20.6
07:50 1017 30.03 846 24.98 -0.5 31.1 64 -6.5 20.4
07:55 1017 30.03 846 24.98 -0.5 31.1 64 -6.4 20.4
08:00 1017 30.03 846 24.98 -0.4 31.2 64 -6.4 20.5
08:05 1017 30.03 846 24.98 -0.4 31.2 65 -6.2 20.9
08:10 1017 30.03 846 24.98 -0.3 31.4 65 -6 21.2
08:15 1017 30.03 846 24.98 0.1 32.1 64 -5.9 21.3
08:20 1017 30.03 846 24.98 0 32 65 -5.8 21.6
08:25 1017 30.03 846 24.98 -0 32 65 -5.9 21.4
08:30 1017 30.03 846 24.98 -0 32 65 -5.8 21.5
08:35 1017 30.03 846 24.98 0.3 32.6 62 -6.1 21.1
08:40 1017 30.03 846 24.98 0.7 33.2 60 -6.2 20.8
08:45 1017 30.03 846 24.98 0.8 33.4 60 -6.2 20.9
08:50 1017 30.03 847 25.01 1 33.8 57 -6.5 20.2
08:55 1017 30.03 847 25.01 1.3 34.4 55 -6.7 20
09:00 1017 30.03 847 25.01 1.6 34.9 55 -6.4 20.5
09:05 1017 30.03 846 24.98 1.8 35.2 56 -6.2 20.9
09:10 1017 30.03 847 25.01 2.2 35.9 52 -6.6 20.1
09:15 1017 30.03 847 25.01 1.7 35 54 -6.6 20.1
09:20 1017 30.03 847 25.01 1.9 35.5 54 -6.5 20.3
09:25 1017 30.03 847 25.01 2.3 36.1 52 -6.6 20.1
09:30 1017 30.03 847 25.01 2 35.5 54 -6.4 20.5
09:35 1017 30.03 847 25.01 1.7 35.1 54 -6.7 20
09:40 1018 30.06 847 25.01 1.6 34.8 54 -6.7 20
09:45 1018 30.06 847 25.01 1.8 35.3 53 -6.7 20
09:50 1018 30.06 847 25.01 1.8 35.2 54 -6.5 20.3
09:55 1018 30.06 847 25.01 1.7 35.1 55 -6.4 20.6
10:00 1018 30.06 847 25.01 1.9 35.5 53 -6.5 20.2
10:05 1018 30.06 847 25.01 1.8 35.2 54 -6.6 20.1
10:10 1018 30.06 847 25.01 2.5 36.5 51 -6.6 20.1
10:15 1018 30.06 847 25.01 2.8 37 52 -6.2 20.9
10:20 1018 30.06 847 25.01 3.2 37.7 50 -6.2 20.8
10:25 1018 30.06 847 25.01 3.6 38.6 48 -6.4 20.4
10:30 1018 30.06 847 25.01 3.1 37.5 49 -6.7 20
10:35 1018 30.06 847 25.01 2.9 37.3 48 -6.9 19.5
10:40 1017 30.03 847 25.01 2.8 37 50 -6.7 20
10:45 1017 30.03 847 25.01 2.6 36.7 49 -7.1 19.1
10:50 1017 30.03 847 25.01 2.9 37.3 47 -7.2 19.1
10:55 1017 30.03 847 25.01 2.8 37.1 48 -7.1 19.2
11:00 1018 30.06 847 25.01 2.7 36.8 49 -7.1 19.2
11:05 1018 30.06 847 25.01 3.1 37.5 46 -7.5 18.5
11:10 1018 30.06 847 25.01 3.3 37.9 45 -7.4 18.7
11:15 1018 30.06 847 25.01 3.4 38.1 45 -7.4 18.7
11:20 1018 30.06 847 25.01 4 39.2 42 -7.7 18.2
11:25 1018 30.06 847 25.01 3.9 39 43 -7.7 18.2
11:30 1018 30.06 847 25.01 4 39.1 43 -7.6 18.3
11:35 1018 30.06 847 25.01 4.1 39.3 44 -7.1 19.2
11:40 1018 30.06 847 25.01 4.1 39.5 43 -7.2 19
11:45 1018 30.06 847 25.01 4.4 40 43 -7.1 19.2
11:50 1018 30.06 847 25.01 4.3 39.8 45 -6.7 20
11:55 1018 30.06 847 25.01 4.1 39.3 44 -7 19.4
12:00 1018 30.06 847 25.01 4.7 40.5 43 -6.8 19.8
12:05 1018 30.06 847 25.01 4.7 40.5 44 -6.4 20.5
12:10 1018 30.06 847 25.01 4.2 39.5 47 -6.2 20.8
12:15 1018 30.06 847 25.01 4.2 39.5 47 -6.3 20.7
12:20 1018 30.06 847 25.01 4.6 40.4 45 -6.2 20.9
12:25 1018 30.06 847 25.01 4.8 40.7 44 -6.5 20.4
12:30 1018 30.06 847 25.01 4.7 40.5 44 -6.5 20.3
12:35 1018 30.06 847 25.01 4.6 40.3 43 -6.8 19.7
12:40 1018 30.06 847 25.01 5 41 42 -7 19.4
12:45 1018 30.06 847 25.01 5.4 41.7 40 -7.1 19.3
12:50 1018 30.06 847 25.01 5.6 42 40 -6.9 19.6
12:55 1018 30.06 847 25.01 5.7 42.3 39 -7.2 19
13:00 1018 30.06 847 25.01 5.7 42.2 41 -6.7 20
13:05 1018 30.06 847 25.01 6.2 43.2 39 -6.8 19.7
13:10 1018 30.06 847 25.01 6.7 44 36 -7.3 18.8
13:15 1018 30.06 847 25.01 6.7 44.1 35 -7.6 18.4
13:20 1018 30.06 847 25.01 6.7 44 35 -7.6 18.4
13:25 1018 30.06 847 25.01 6.4 43.5 37 -7.1 19.2
13:30 1018 30.06 847 25.01 6.1 43.1 38 -7.1 19.2
13:35 1018 30.06 847 25.01 6 42.8 38 -7.2 19
13:40 1018 30.06 847 25.01 6.4 43.6 38 -6.9 19.6
13:45 1018 30.06 847 25.01 6.6 43.8 39 -6.4 20.5
13:50 1018 30.06 847 25.01 5.9 42.6 38 -7.3 18.8
13:55 1018 30.06 847 25.01 6.2 43.2 38 -6.9 19.5
14:00 1018 30.06 847 25.01 6.5 43.7 36 -7.5 18.5
14:05 1018 30.06 847 25.01 6.2 43.2 38 -6.9 19.6
14:10 1018 30.06 847 25.01 6.4 43.5 38 -6.9 19.6
14:15 1018 30.06 847 25.01 6.8 44.3 35 -7.5 18.6
14:20 1018 30.06 847 25.01 7.2 44.9 36 -7 19.4
14:25 1018 30.06 847 25.01 7.1 44.7 35 -7.2 19
14:30 1018 30.06 847 25.01 6.7 44 36 -7.2 19
14:35 1018 30.06 847 25.01 7.1 44.8 35 -7.2 19
14:40 1018 30.06 847 25.01 7.9 46.2 33 -7.4 18.7
14:45 1018 30.06 847 25.01 7.6 45.7 35 -6.9 19.5
14:50 1018 30.06 847 25.01 7.6 45.6 32 -8 17.5
14:55 1018 30.06 847 25.01 7.6 45.7 32 -8.1 17.4
15:00 1018 30.06 847 25.01 7.3 45.2 31 -8.6 16.6
15:05 1018 30.06 847 25.01 7.9 46.1 31 -8.4 16.8
15:10 1018 30.06 847 25.01 7.3 45.2 32 -8.3 17.1
15:15 1018 30.06 847 25.01 7.9 46.3 31 -8.2 17.2
15:20 1018 30.06 847 25.01 8 46.3 31 -8.3 17
15:25 1018 30.06 847 25.01 8.2 46.7 30 -8.4 16.8
15:30 1018 30.06 847 25.01 8.2 46.8 31 -8.1 17.4
15:35 1018 30.06 847 25.01 8.5 47.4 30 -8.2 17.2
15:40 1018 30.06 847 25.01 8.4 47.1 28 -9 15.7
15:45 1018 30.06 847 25.01 7.8 46 30 -8.8 16.1
15:50 1018 30.06 847 25.01 8.2 46.7 31 -8 17.6
15:55 1018 30.06 847 25.01 8.4 47.2 29 -8.5 16.8
16:00 1017 30.03 847 25.01 8.1 46.6 29 -9.1 15.6
16:05 1018 30.06 847 25.01 7.3 45.1 29 -9.5 14.8
16:10 1018 30.06 847 25.01 7.4 45.3 29 -9.7 14.5
16:15 1018 30.06 847 25.01 8 46.5 28 -9.5 14.9
16:20 1018 30.06 847 25.01 8.2 46.7 27 -9.9 14.2
16:25 1018 30.06 847 25.01 8.2 46.7 25 -10.8 12.5
16:30 1018 30.06 847 25.01 8.1 46.5 25 -10.8 12.6
16:35 1018 30.06 847 25.01 8.4 47.2 26 -10.2 13.7
16:40 1018 30.06 847 25.01 8.6 47.5 25 -10.5 13.2
16:45 1018 30.06 847 25.01 8.4 47.2 24 -10.8 12.5
16:50 1018 30.06 847 25.01 8.1 46.6 25 -10.7 12.8
16:55 1018 30.06 847 25.01 8.4 47.1 24 -10.8 12.5
17:00 1018 30.06 847 25.01 8.8 47.8 25 -10.4 13.3
17:05 1018 30.06 847 25.01 8.6 47.5 25 -10.5 13.2
17:10 1018 30.06 847 25.01 8.3 47 26 -10.3 13.4
17:15 1018 30.06 847 25.01 8.5 47.3 26 -9.9 14.1
17:20 1018 30.06 847 25.01 8.2 46.8 26 -10 14
17:25 1018 30.06 847 25.01 8.3 47 27 -9.8 14.4
17:30 1018 30.06 847 25.01 8.7 47.7 26 -9.8 14.4
17:35 1018 30.06 847 25.01 8.7 47.6 27 -9.5 14.9
17:40 1018 30.06 847 25.01 8.1 46.6 28 -9.5 14.9
17:45 1018 30.06 847 25.01 8.1 46.6 27 -9.8 14.4
17:50 1018 30.06 847 25.01 8.3 46.9 27 -9.5 14.9
17:55 1018 30.06 847 25.01 8.5 47.4 26 -9.7 14.6
18:00 1018 30.06 847 25.01 8.6 47.5 27 -9.3 15.2
18:05 1018 30.06 847 25.01 8.5 47.2 27 -9.6 14.7
18:10 1018 30.06 847 25.01 8.4 47.2 27 -9.5 14.8
18:15 1018 30.06 847 25.01 8.4 47.1 26 -9.8 14.4
18:20 1018 30.06 847 25.01 8.3 46.9 27 -9.7 14.6
18:25 1018 30.06 847 25.01 8.2 46.7 27 -9.8 14.4
18:30 1018 30.06 847 25.01 8.3 46.9 27 -9.8 14.3
18:35 1018 30.06 847 25.01 8.1 46.5 27 -10 14.1
18:40 1018 30.06 847 25.01 8.2 46.7 26 -10.1 13.9
18:45 1018 30.06 847 25.01 8.2 46.7 27 -9.8 14.4
18:50 1018 30.06 847 25.01 8 46.4 27 -9.8 14.3
18:55 1018 30.06 847 25.01 7.9 46.3 27 -9.9 14.2
19:00 1018 30.06 847 25.01 8.1 46.5 27 -9.8 14.4
19:05 1018 30.06 847 25.01 8 46.4 27 -10 14
19:10 1018 30.06 847 25.01 8 46.3 27 -10.1 13.9
19:15 1018 30.06 847 25.01 7.9 46.2 27 -10 14.1
19:20 1018 30.06 847 25.01 7.9 46.2 27 -10.2 13.7
19:25 1018 30.06 847 25.01 7.8 46.1 27 -10 13.9
19:30 1018 30.06 847 25.01 7.8 46 28 -9.9 14.3
19:35 1018 30.06 847 25.01 7.7 45.9 27 -9.9 14.1
19:40 1018 30.06 847 25.01 7.6 45.7 28 -9.8 14.3
19:45 1018 30.06 847 25.01 7.6 45.6 28 -9.6 14.7
19:50 1018 30.06 847 25.01 7.5 45.4 29 -9.5 15
19:55 1018 30.06 847 25.01 7.4 45.3 29 -9.5 15
20:00 1018 30.06 847 25.01 7.4 45.3 30 -9.3 15.3
20:05 1018 30.06 848 25.04 7.4 45.3 31 -8.8 16.2
20:10 1018 30.06 848 25.04 7.3 45.1 32 -8.4 16.9
20:15 1018 30.06 848 25.04 7.2 44.9 33 -8 17.6
20:20 1018 30.06 848 25.04 7.1 44.7 33 -7.9 17.7
20:25 1018 30.06 848 25.04 6.9 44.5 33 -8.1 17.4
20:30 1019 30.09 848 25.04 6.8 44.3 33 -8.2 17.3
20:35 1019 30.09 848 25.04 6.7 44.1 34 -8.1 17.5
20:40 1019 30.09 848 25.04 6.6 43.8 35 -8 17.7
20:45 1019 30.09 848 25.04 6.5 43.7 35 -7.8 18
20:50 1019 30.09 848 25.04 6.5 43.6 36 -7.6 18.3
20:55 1019 30.09 848 25.04 6.3 43.4 36 -7.5 18.4
21:00 1019 30.09 848 25.04 6.1 43.1 38 -7.2 19
21:05 1019 30.09 848 25.04 6 42.9 38 -7.2 19
21:10 1019 30.09 848 25.04 5.8 42.5 39 -7.1 19.2
21:15 1019 30.09 848 25.04 5.8 42.5 39 -7.1 19.1
21:20 1019 30.09 848 25.04 5.9 42.6 39 -7 19.4
21:25 1019 30.09 848 25.04 5.9 42.6 39 -7 19.4
21:30 1019 30.09 848 25.04 5.8 42.5 40 -6.7 20
21:35 1019 30.09 848 25.04 5.6 42.1 42 -6.3 20.7
21:40 1019 30.09 848 25.04 5.4 41.8 45 -5.5 22
21:45 1019 30.09 848 25.04 4.7 40.5 48 -5.3 22.4
21:50 1019 30.09 848 25.04 4 39.3 53 -4.7 23.5
21:55 1019 30.09 848 25.04 3.6 38.5 55 -4.6 23.8
22:00 1019 30.09 848 25.04 3.4 38.1 57 -4.3 24.3
22:05 1019 30.09 848 25.04 3.3 37.9 58 -4.3 24.3
22:10 1019 30.09 848 25.04 3.3 37.9 57 -4.3 24.2
22:15 1019 30.09 848 25.04 3.1 37.5 59 -4.3 24.3
22:20 1019 30.09 848 25.04 2.8 37 59 -4.5 23.9
22:25 1019 30.09 848 25.04 2.6 36.6 60 -4.3 24.2
22:30 1019 30.09 849 25.07 2.7 36.8 61 -4.2 24.4
22:35 1019 30.09 849 25.07 2.8 37.1 59 -4.3 24.2
22:40 1019 30.09 849 25.07 2.8 37 61 -3.9 24.9
22:45 1019 30.09 849 25.07 2.3 36.1 65 -3.7 25.4
22:50 1020 30.12 849 25.07 2 35.5 66 -3.7 25.4
22:55 1020 30.12 849 25.07 2 35.6 65 -3.8 25.1
23:00 1020 30.12 849 25.07 1.8 35.3 66 -3.9 25
23:05 1020 30.12 849 25.07 1.8 35.3 66 -3.9 24.9
23:10 1020 30.12 849 25.07 1.8 35.2 66 -3.9 25
23:15 1020 30.12 849 25.07 1.7 35.1 65 -4.2 24.5
23:20 1020 30.12 849 25.07 1.8 35.2 64 -4.3 24.3
23:25 1020 30.12 849 25.07 1.9 35.3 63 -4.4 24
23:30 1020 30.12 849 25.07 2.2 36 58 -5.1 22.8
23:35 1020 30.12 849 25.07 2.7 36.9 56 -5.1 22.8
23:40 1020 30.12 849 25.07 3 37.3 55 -5.2 22.6
23:45 1020 30.12 849 25.07 3.1 37.6 54 -5.3 22.4
23:50 1020 30.12 849 25.07 3.2 37.8 53 -5.5 22.2
23:55 1020 30.12 849 25.07 3.2 37.7 53 -5.6 21.9
24:00 1020 30.12 849 25.07 3.3 37.9 52 -5.8 21.6